SBOSBO PSA / LIRP
Speedbird OnlineSpeedbird Online PSA / LIRP

Pisa International Airport
20:44 16.6°C

Location Pisa, Italy
Latitude: 43.683899
Longitude: 10.3927
Web Airport Website | Wikipedia
Altitude 2 Meter / 6 Feet
Distance 1,159 KM / 720 Miles
from London.
Time Zone UTC +2 hours (Europe/Rome)
Codes IATA: PSA
ICAO: LIRP
Currency £1 equals EUR 1.12
Runways
RunwayLength (m)Surface
04L2792Asphalt
04R2993Asphalt
22L2993Asphalt
22R2792Asphalt
Radio
TypeDescriptionFrequency
APPAPP122.1
GNDGND121.6
TWRTWR119.1
Live ATC
METAR LIRP 241815Z 05003KT 9999 SCT030 SCT060 18/18 Q1012 NOSIG
TAF TAF LIRP 241700Z 2418/2518 19007KT 9999 BKN020 BKN040 TEMPO 2418/2506 3000 TSRA FEW020CB BKN030 BECMG 2500/2502 10012KT TEMPO 2512/2518 5000 SHRA BECMG 2514/2516 26010KT
Weather As Of 24 Sep 2022 20:44
Description Overcast clouds
Wind 8 km/h from East (79°)
Cloud Cover 100%
Precipitation Rain: none, Snow: none
Sunrise 07:07
Sunset 19:13
Lounges Sala VIP Galilei Lounge (Temporarily Closed), Terminal 1, 1st Floor, Departure Hall
Rotations During the last 90 days there were
155 flights from LHR
186 flights to LHR
1 flights to EDI


© 2017-2022 Speedbird Online